Golf — V7WO7 — position and weather

sailwx.info

Track history (hours):
 
Tides and Currents Weather Stations Pressure Air Temp Water Temp Dewpoint Dewpoint Depression Visibility Wind Speed Wind Dir Waves Ship Positions

Golf

Last reported at 2018-May-08 00:43 UTC. Time now 2018-Jun-21 04:53 UTC.
Position N 11°01' W 061°23'.
Warning: this ship's position is 44 days out of date.

Length 180 m; draft 9.7 m.

Type: Cargo ship. MMSI: 538004355.

Date/timePositionNaut miles runAvg speedWind from/ knotsBaromVisibWave heightAir tempDewpointWater temp
2018-May-08 00:43N 11°01' W 061°23'9 1.9
2018-May-07 20:07N 11°01' W 061°32'0 0.7
2018-May-07 19:50N 11°01' W 061°32'1 0.6
2018-May-07 18:37N 11°01' W 061°33'0 0.6
2018-May-07 18:18N 11°01' W 061°33'0 0.7
2018-May-07 17:54N 11°01' W 061°33'0 0.8
2018-May-07 17:24N 11°01' W 061°34'1 1.9
2018-May-07 16:59N 11°00' W 061°34'5 9.4
2018-May-07 16:30N 11°02' W 061°39'510.3
2018-May-07 16:01N 11°03' W 061°44'510.7
2018-May-07 15:31N 11°05' W 061°49'  
2018-May-03 10:09N 09°30' W 075°36'0 0.0
2018-May-03 09:57N 09°30' W 075°36'0 0.0
2018-May-03 09:27N 09°30' W 075°36'0 0.0
2018-May-03 02:21N 09°30' W 075°36'0 0.0
2018-May-03 02:00N 09°30' W 075°36'0 0.0
2018-May-03 01:27N 09°30' W 075°36'0 0.0
2018-May-02 01:27N 09°30' W 075°36'0 0.0
2018-May-01 22:09N 09°30' W 075°36'0 0.0
2018-May-01 22:00N 09°30' W 075°36'0 0.0
2018-May-01 18:09N 09°30' W 075°36'0 0.0
2018-Apr-30 05:39N 09°30' W 075°36'0 0.0
2018-Apr-30 05:30N 09°30' W 075°36'0 0.0
2018-Apr-30 04:51N 09°30' W 075°36'0 0.0
2018-Apr-30 04:30N 09°30' W 075°36'0 0.0
2018-Apr-30 04:00N 09°30' W 075°36'0 0.0
2018-Apr-30 03:30N 09°30' W 075°36'0 0.0
2018-Apr-30 01:54N 09°30' W 075°36'0 0.0
2018-Apr-30 01:27N 09°30' W 075°36'0 0.0
2018-Apr-30 00:18N 09°30' W 075°36'0 0.0
2018-Apr-30 00:00N 09°30' W 075°36'  
Track history (hours):
 
Tides and Currents Weather Stations Pressure Air Temp Water Temp Dewpoint Dewpoint Depression Visibility Wind Speed Wind Dir Waves Ship Positions

Golf

Last reported at 2018-May-08 00:43 UTC. Time now 2018-Jun-21 04:53 UTC.
Position N 11°01' W 061°23'.
Warning: this ship's position is 44 days out of date.

Length 180 m; draft 9.7 m.

Type: Cargo ship. MMSI: 538004355.

Date/timePositionNaut miles runAvg speedWind from/ knotsBaromVisibWave heightAir tempDewpointWater temp
2018-May-08 00:43N 11°01' W 061°23'9 1.9
2018-May-07 20:07N 11°01' W 061°32'0 0.7
2018-May-07 19:50N 11°01' W 061°32'1 0.6
2018-May-07 18:37N 11°01' W 061°33'0 0.6
2018-May-07 18:18N 11°01' W 061°33'0 0.7
2018-May-07 17:54N 11°01' W 061°33'0 0.8
2018-May-07 17:24N 11°01' W 061°34'1 1.9
2018-May-07 16:59N 11°00' W 061°34'5 9.4
2018-May-07 16:30N 11°02' W 061°39'510.3
2018-May-07 16:01N 11°03' W 061°44'510.7
2018-May-07 15:31N 11°05' W 061°49'  
2018-May-03 10:09N 09°30' W 075°36'0 0.0
2018-May-03 09:57N 09°30' W 075°36'0 0.0
2018-May-03 09:27N 09°30' W 075°36'0 0.0
2018-May-03 02:21N 09°30' W 075°36'0 0.0
2018-May-03 02:00N 09°30' W 075°36'0 0.0
2018-May-03 01:27N 09°30' W 075°36'0 0.0
2018-May-02 01:27N 09°30' W 075°36'0 0.0
2018-May-01 22:09N 09°30' W 075°36'0 0.0
2018-May-01 22:00N 09°30' W 075°36'0 0.0
2018-May-01 18:09N 09°30' W 075°36'0 0.0
2018-Apr-30 05:39N 09°30' W 075°36'0 0.0
2018-Apr-30 05:30N 09°30' W 075°36'0 0.0
2018-Apr-30 04:51N 09°30' W 075°36'0 0.0
2018-Apr-30 04:30N 09°30' W 075°36'0 0.0
2018-Apr-30 04:00N 09°30' W 075°36'0 0.0
2018-Apr-30 03:30N 09°30' W 075°36'0 0.0
2018-Apr-30 01:54N 09°30' W 075°36'0 0.0
2018-Apr-30 01:27N 09°30' W 075°36'0 0.0
2018-Apr-30 00:18N 09°30' W 075°36'0 0.0
2018-Apr-30 00:00N 09°30' W 075°36'  

Dump ship's entire track history